Time;durP1;ratioP1;P1;durP2;ratioP2;P2;SDS_P1;SDS_P2;PMS_P1;PMS_P2;Temp;Humidity;BMP_temperature;BMP_pressure;BME280_temperature;BME280_humidity;BME280_pressure;Samples;Min_cycle;Max_cycle;Signal;HPM_P1;HPM_P2
2024/01/10 00:00:12;;;;;;;9.73;6.67;;;;;;;;;;6298793;28;20192;-62
2024/01/10 00:03:13;;;;;;;9.37;6.00;;;;;;;;;;6303438;28;20188;-62
2024/01/10 00:06:14;;;;;;;10.57;5.50;;;;;;;;;;6277254;28;20253;-62
2024/01/10 00:09:16;;;;;;;8.73;5.27;;;;;;;;;;6272605;28;20741;-62
2024/01/10 00:12:17;;;;;;;9.47;6.03;;;;;;;;;;6297218;28;20272;-62
2024/01/10 00:15:17;;;;;;;8.23;5.70;;;0.00;48.80;;;;;;6278176;28;20237;-62
2024/01/10 00:18:18;;;;;;;11.13;5.20;;;;;;;;;;6270108;28;20228;-62
2024/01/10 00:21:19;;;;;;;8.07;5.27;;;;;;;;;;6292122;28;20188;-62
2024/01/10 00:24:20;;;;;;;8.80;5.20;;;;;;;;;;6278898;28;20192;-62
2024/01/10 00:27:22;;;;;;;9.67;6.50;;;;;;;;;;6281822;28;21065;-62
2024/01/10 00:30:23;;;;;;;7.50;5.70;;;;;;;;;;6285845;28;20216;-62
2024/01/10 00:33:24;;;;;;;9.33;6.03;;;;;;;;;;6308132;28;20184;-62
2024/01/10 00:36:25;;;;;;;8.37;5.03;;;;;;;;;;6294424;28;20267;-62
2024/01/10 00:39:26;;;;;;;7.77;5.23;;;;;;;;;;6281008;28;20200;-62
2024/01/10 00:42:27;;;;;;;8.30;5.20;;;;;;;;;;6297819;28;20200;-62
2024/01/10 00:45:28;;;;;;;9.67;5.83;;;;;;;;;;6285963;28;20202;-62
2024/01/10 00:48:29;;;;;;;10.80;6.10;;;;;;;;;;6296289;28;20196;-62
2024/01/10 00:51:31;;;;;;;8.97;6.17;;;-0.10;50.30;;;;;;6278001;28;20238;-62
2024/01/10 00:54:32;;;;;;;10.47;6.60;;;24.00;50.00;;;;;;6268548;28;20199;-62
2024/01/10 00:57:33;;;;;;;9.43;5.57;;;-0.20;51.20;;;;;;6256429;28;20231;-62
2024/01/10 01:00:34;;;;;;;7.77;5.37;;;-0.20;51.70;;;;;;6279508;28;20213;-63
2024/01/10 01:03:36;;;;;;;10.20;5.87;;;-0.20;51.20;;;;;;6287900;28;20203;-63
2024/01/10 01:06:37;;;;;;;10.97;5.63;;;-0.20;51.80;;;;;;6262413;28;20196;-62
2024/01/10 01:09:38;;;;;;;10.40;5.43;;;-0.10;50.50;;;;;;6296443;28;20384;-62
2024/01/10 01:12:40;;;;;;;12.43;6.03;;;-0.10;51.20;;;;;;6266334;28;20196;-62
2024/01/10 01:15:41;;;;;;;10.70;5.83;;;-0.10;51.20;;;;;;6273621;28;20253;-63
2024/01/10 01:18:45;;;;;;;10.40;6.30;;;-0.10;50.90;;;;;;6260498;28;20190;-63
2024/01/10 01:21:46;;;;;;;13.80;6.10;;;-0.10;51.50;;;;;;6267930;28;20198;-63
2024/01/10 01:24:47;;;;;;;9.73;6.13;;;-0.10;51.40;;;;;;6264621;28;20185;-63
2024/01/10 01:27:48;;;;;;;10.10;5.80;;;-0.10;51.30;;;;;;6260612;28;20229;-63
2024/01/10 01:30:48;;;;;;;11.77;6.30;;;-0.10;51.40;;;;;;6256010;28;20226;-63
2024/01/10 01:33:49;;;;;;;13.17;6.27;;;-0.20;52.40;;;;;;6254874;28;20279;-63
2024/01/10 01:36:51;;;;;;;10.17;6.57;;;-0.10;52.30;;;;;;6262230;28;20239;-62
2024/01/10 01:39:52;;;;;;;13.00;6.27;;;-0.10;51.80;;;;;;6292957;28;20202;-63
2024/01/10 01:42:54;;;;;;;10.17;5.90;;;-0.10;51.90;;;;;;6265168;28;20200;-63
2024/01/10 01:45:56;;;;;;;10.77;6.07;;;-0.20;52.00;;;;;;6284739;28;20197;-63
2024/01/10 01:48:58;;;;;;;7.93;5.57;;;-0.10;52.90;;;;;;6268292;28;20304;-62
2024/01/10 01:52:00;;;;;;;11.30;6.17;;;-0.10;52.50;;;;;;6254500;28;20210;-63
2024/01/10 01:55:02;;;;;;;11.03;6.43;;;-0.10;52.80;;;;;;6272410;28;20276;-63
2024/01/10 01:58:03;;;;;;;11.67;6.60;;;-0.10;52.70;;;;;;6298401;28;20231;-63
2024/01/10 02:01:05;;;;;;;12.40;6.63;;;-0.10;52.30;;;;;;6284877;28;20201;-63
2024/01/10 02:04:05;;;;;;;10.70;6.53;;;-0.10;52.20;;;;;;6300509;28;20214;-63
2024/01/10 02:07:06;;;;;;;11.17;6.60;;;-0.10;53.50;;;;;;6251533;28;20326;-63
2024/01/10 02:10:07;;;;;;;11.47;6.30;;;-0.10;53.10;;;;;;6264192;28;20285;-62
2024/01/10 02:13:09;;;;;;;11.13;6.43;;;-0.20;53.50;;;;;;6260539;28;20188;-63
2024/01/10 02:16:11;;;;;;;10.70;6.33;;;-0.20;54.00;;;;;;6259730;28;20185;-63
2024/01/10 02:19:22;;;;;;;11.37;6.13;;;-0.10;53.40;;;;;;6279031;28;20192;-62
2024/01/10 02:22:23;;;;;;;9.30;6.27;;;-0.20;54.10;;;;;;6269470;28;20190;-63
2024/01/10 02:25:24;;;;;;;10.87;6.07;;;-0.20;53.50;;;;;;6283399;28;20204;-63
2024/01/10 02:28:24;;;;;;;10.03;6.23;;;-0.20;53.30;;;;;;6291530;28;20190;-63
2024/01/10 02:31:27;;;;;;;14.83;6.13;;;-0.20;53.90;;;;;;6273116;28;20219;-63
2024/01/10 02:34:30;;;;;;;11.57;6.80;;;-0.20;53.90;;;;;;6257762;28;20197;-63
2024/01/10 02:37:31;;;;;;;9.67;6.30;;;-0.20;54.50;;;;;;6279084;28;20212;-63
2024/01/10 02:40:31;;;;;;;11.37;6.67;;;-0.30;53.30;;;;;;6284997;28;20195;-63
2024/01/10 02:43:32;;;;;;;9.07;5.80;;;-0.40;53.50;;;;;;6282894;28;20265;-63
2024/01/10 02:46:33;;;;;;;10.40;6.07;;;-0.40;54.90;;;;;;6259537;28;20197;-63
2024/01/10 02:49:33;;;;;;;10.33;5.47;;;-0.40;54.50;;;;;;6265036;28;20279;-63
2024/01/10 02:52:34;;;;;;;9.93;6.20;;;-0.40;54.20;;;;;;6272758;28;20183;-63
2024/01/10 02:55:35;;;;;;;10.30;5.70;;;-0.50;54.70;;;;;;6270586;28;20279;-63
2024/01/10 02:58:36;;;;;;;11.07;6.53;;;;;;;;;;6260977;28;20323;-63
2024/01/10 03:01:37;;;;;;;10.87;5.77;;;;;;;;;;6282424;28;20196;-62
2024/01/10 03:04:38;;;;;;;10.43;5.83;;;;;;;;;;6281781;28;20189;-63
2024/01/10 03:07:39;;;;;;;11.10;6.30;;;;;;;;;;6282053;28;20353;-63
2024/01/10 03:10:40;;;;;;;11.90;6.73;;;-0.50;55.30;;;;;;6269748;28;20221;-63
2024/01/10 03:13:40;;;;;;;8.47;5.77;;;-0.70;57.30;;;;;;6272890;28;20189;-63
2024/01/10 03:16:41;;;;;;;9.00;5.43;;;-0.90;57.80;;;;;;6277365;28;20258;-63
2024/01/10 03:19:45;;;;;;;11.63;6.40;;;24.00;50.00;;;;;;6272151;28;20194;-63
2024/01/10 03:22:45;;;;;;;10.10;5.60;;;-0.90;57.80;;;;;;6255319;28;20193;-63
2024/01/10 03:25:46;;;;;;;9.47;5.80;;;-1.00;58.10;;;;;;6263483;28;20195;-63
2024/01/10 03:28:47;;;;;;;9.80;6.20;;;-1.10;58.40;;;;;;6267487;28;20246;-63
2024/01/10 03:31:48;;;;;;;9.93;6.17;;;-0.70;57.50;;;;;;6281400;28;20208;-63
2024/01/10 03:34:51;;;;;;;10.27;5.70;;;;;;;;;;6272926;28;20188;-63
2024/01/10 03:37:52;;;;;;;9.37;5.50;;;;;;;;;;6280640;28;20189;-62
2024/01/10 03:40:53;;;;;;;12.27;6.00;;;;;;;;;;6285739;28;20219;-63
2024/01/10 03:43:54;;;;;;;10.60;6.00;;;;;;;;;;6275893;28;20188;-62
2024/01/10 03:46:55;;;;;;;8.27;6.07;;;;;;;;;;6282319;28;20196;-63
2024/01/10 03:49:56;;;;;;;10.47;5.60;;;;;;;;;;6271208;28;20246;-63
2024/01/10 03:52:57;;;;;;;10.13;5.90;;;;;;;;;;6284509;28;20181;-62
2024/01/10 03:55:58;;;;;;;8.93;5.73;;;;;;;;;;6289607;28;20191;-63
2024/01/10 03:59:01;;;;;;;8.93;5.73;;;;;;;;;;6283656;28;20229;-63
2024/01/10 04:02:02;;;;;;;11.20;6.20;;;;;;;;;;6266086;28;20189;-62
2024/01/10 04:05:07;;;;;;;8.33;6.00;;;-1.20;57.90;;;;;;6240117;28;20222;-63
2024/01/10 04:08:08;;;;;;;10.57;6.07;;;-1.70;59.70;;;;;;6263626;28;20246;-62
2024/01/10 04:11:09;;;;;;;11.37;5.93;;;-1.70;60.00;;;;;;6246842;28;20224;-62
2024/01/10 04:14:09;;;;;;;9.57;5.63;;;-1.70;60.70;;;;;;6249166;28;20196;-67
2024/01/10 04:17:10;;;;;;;12.00;6.83;;;-1.70;61.20;;;;;;6250095;28;20212;-62
2024/01/10 04:20:11;;;;;;;9.93;6.13;;;-1.70;61.70;;;;;;6251312;28;20201;-62
2024/01/10 04:23:12;;;;;;;11.63;5.77;;;-1.70;61.80;;;;;;6238796;28;20201;-62
2024/01/10 04:26:12;;;;;;;10.73;6.40;;;-1.70;61.80;;;;;;6239810;28;20198;-63
2024/01/10 04:29:13;;;;;;;11.23;6.63;;;-1.70;62.10;;;;;;6257070;28;20218;-63
2024/01/10 04:32:14;;;;;;;9.63;6.07;;;-1.80;62.00;;;;;;6252294;28;20197;-62
2024/01/10 04:35:15;;;;;;;9.27;5.60;;;-1.80;61.60;;;;;;6241286;28;20264;-63
2024/01/10 04:38:15;;;;;;;9.40;5.83;;;24.00;50.00;;;;;;6244107;28;20192;-62
2024/01/10 04:41:16;;;;;;;8.73;5.87;;;-1.80;62.60;;;;;;6254644;28;20198;-63
2024/01/10 04:44:17;;;;;;;9.40;5.93;;;-1.90;61.60;;;;;;6260908;28;20229;-62
2024/01/10 04:47:18;;;;;;;8.23;5.43;;;-1.80;61.00;;;;;;6273628;28;20199;-62
2024/01/10 04:50:19;;;;;;;11.07;6.30;;;-1.90;61.80;;;;;;6247252;28;20290;-63
2024/01/10 04:53:20;;;;;;;12.43;6.77;;;-2.00;62.30;;;;;;6245615;28;20194;-62
2024/01/10 04:56:21;;;;;;;9.70;6.07;;;-2.10;62.40;;;;;;6234304;28;20187;-63
2024/01/10 04:59:21;;;;;;;11.07;6.43;;;-2.10;62.90;;;;;;6276113;28;20238;-62
2024/01/10 05:02:22;;;;;;;11.77;6.63;;;-2.10;63.00;;;;;;6272373;28;20208;-62
2024/01/10 05:05:23;;;;;;;12.17;6.53;;;-2.10;63.00;;;;;;6247601;28;20206;-63
2024/01/10 05:08:26;;;;;;;9.73;6.37;;;;;;;;;;6269217;28;20197;-62
2024/01/10 05:11:27;;;;;;;12.47;6.23;;;;;;;;;;6278997;28;20248;-63
2024/01/10 05:14:28;;;;;;;12.10;6.57;;;;;;;;;;6275047;28;20224;-62
2024/01/10 05:17:29;;;;;;;9.40;6.13;;;;;;;;;;6293388;28;20194;-61
2024/01/10 05:20:29;;;;;;;10.70;6.00;;;-2.10;63.00;;;;;;6274961;28;20201;-64
2024/01/10 05:23:30;;;;;;;11.37;5.90;;;;;;;;;;6272318;28;20287;-62
2024/01/10 05:26:32;;;;;;;10.23;6.27;;;;;;;;;;6267350;28;20227;-62
2024/01/10 05:29:32;;;;;;;11.67;6.83;;;-2.00;63.50;;;;;;6267659;28;20216;-62
2024/01/10 05:32:33;;;;;;;12.43;6.70;;;-2.30;63.80;;;;;;6273297;28;20206;-61
2024/01/10 05:35:35;;;;;;;11.20;6.00;;;-2.40;64.40;;;;;;6273259;28;20206;-61
2024/01/10 05:38:36;;;;;;;8.67;5.83;;;-2.40;64.20;;;;;;6296702;28;20187;-61
2024/01/10 05:41:36;;;;;;;8.90;6.03;;;-2.50;64.50;;;;;;6249724;28;20195;-61
2024/01/10 05:44:37;;;;;;;10.73;5.67;;;-2.40;64.40;;;;;;6260151;28;20192;-61
2024/01/10 05:47:59;;;;;;;12.60;6.37;;;-2.40;64.50;;;;;;6261294;28;20223;-61
2024/01/10 05:51:01;;;;;;;8.80;6.70;;;-2.50;64.40;;;;;;6282171;28;20697;-61
2024/01/10 05:54:02;;;;;;;7.80;5.83;;;-2.60;64.20;;;;;;6256284;28;20198;-61
2024/01/10 05:57:03;;;;;;;11.20;7.30;;;-2.50;64.50;;;;;;6274117;28;20195;-61
2024/01/10 06:00:09;;;;;;;13.20;7.40;;;-2.50;65.30;;;;;;6284969;28;20212;-61
2024/01/10 06:03:10;;;;;;;12.73;6.63;;;-2.60;65.40;;;;;;6280242;28;20203;-61
2024/01/10 06:06:10;;;;;;;15.80;7.20;;;-2.60;65.60;;;;;;6268335;28;20200;-61
2024/01/10 06:09:11;;;;;;;13.43;6.70;;;-2.60;65.90;;;;;;6270314;28;20306;-61
2024/01/10 06:12:12;;;;;;;11.50;6.23;;;-2.80;66.20;;;;;;6287789;28;20204;-61
2024/01/10 06:15:13;;;;;;;10.90;7.00;;;-2.80;67.20;;;;;;6265682;28;20194;-61
2024/01/10 06:18:13;;;;;;;10.20;5.73;;;-2.80;67.00;;;;;;6260137;28;20194;-61
2024/01/10 06:21:14;;;;;;;9.03;6.43;;;-2.80;66.40;;;;;;6280096;28;20293;-61
2024/01/10 06:24:15;;;;;;;11.83;6.70;;;-2.80;66.20;;;;;;6268601;28;20204;-61
2024/01/10 06:27:15;;;;;;;10.77;6.63;;;-2.80;66.10;;;;;;6267037;28;20198;-60
2024/01/10 06:30:16;;;;;;;10.53;5.63;;;-2.90;66.70;;;;;;6253832;28;20312;-60
2024/01/10 06:33:17;;;;;;;10.37;6.40;;;-2.90;67.00;;;;;;6272849;28;20222;-61
2024/01/10 06:36:18;;;;;;;11.10;6.27;;;-2.90;66.70;;;;;;6285442;28;20190;-61
2024/01/10 06:39:19;;;;;;;10.87;6.27;;;-2.90;67.20;;;;;;6289201;28;21283;-61
2024/01/10 06:42:20;;;;;;;10.60;6.60;;;-2.90;66.60;;;;;;6285809;28;20201;-61
2024/01/10 06:45:21;;;;;;;10.60;6.87;;;-2.90;66.60;;;;;;6287173;28;20190;-61
2024/01/10 06:48:21;;;;;;;9.37;6.30;;;-2.90;66.90;;;;;;6263775;28;20196;-61
2024/01/10 06:51:22;;;;;;;8.37;6.03;;;-2.90;66.80;;;;;;6289932;28;20292;-61
2024/01/10 06:54:23;;;;;;;11.33;7.03;;;-2.90;67.10;;;;;;6280035;28;20190;-60
2024/01/10 06:57:23;;;;;;;9.53;6.53;;;-3.00;67.00;;;;;;6284045;28;20241;-61
2024/01/10 07:00:24;;;;;;;12.87;7.30;;;-3.00;67.20;;;;;;6273959;28;20200;-61
2024/01/10 07:03:25;;;;;;;10.33;5.97;;;-3.00;67.50;;;;;;6281305;28;20212;-61
2024/01/10 07:06:26;;;;;;;12.47;7.60;;;-2.90;67.30;;;;;;6275627;28;20192;-61
2024/01/10 07:09:27;;;;;;;10.03;7.13;;;-2.90;67.60;;;;;;6269640;28;20273;-61
2024/01/10 07:12:27;;;;;;;12.73;7.43;;;-2.90;67.40;;;;;;6287157;28;20215;-61
2024/01/10 07:15:28;;;;;;;11.57;6.83;;;-2.90;67.30;;;;;;6268949;28;20277;-61
2024/01/10 07:18:30;;;;;;;11.73;6.97;;;-2.90;68.40;;;;;;6266009;28;20181;-61
2024/01/10 07:21:31;;;;;;;12.13;7.53;;;-2.90;67.70;;;;;;6283116;28;20215;-61
2024/01/10 07:24:31;;;;;;;11.70;7.17;;;-2.80;68.00;;;;;;6283716;28;20193;-61
2024/01/10 07:27:32;;;;;;;11.33;7.10;;;-2.80;67.70;;;;;;6265960;28;20220;-61
2024/01/10 07:30:33;;;;;;;13.00;6.97;;;-2.80;67.50;;;;;;6273914;28;20213;-61
2024/01/10 07:33:33;;;;;;;13.30;6.77;;;-2.80;67.10;;;;;;6272562;28;20191;-61
2024/01/10 07:36:42;;;;;;;12.70;7.33;;;-2.90;68.40;;;;;;6263496;28;20281;-61
2024/01/10 07:39:43;;;;;;;11.70;7.40;;;-3.00;68.60;;;;;;6284935;28;20200;-61
2024/01/10 07:42:44;;;;;;;11.33;7.10;;;-2.90;68.40;;;;;;6277963;28;20240;-61
2024/01/10 07:45:45;;;;;;;11.13;7.33;;;-2.80;68.80;;;;;;6268203;28;20186;-61
2024/01/10 07:48:45;;;;;;;14.50;8.40;;;-2.70;68.30;;;;;;6275137;28;20244;-61
2024/01/10 07:51:46;;;;;;;11.53;7.30;;;-2.70;68.20;;;;;;6269942;28;20215;-60
2024/01/10 07:54:47;;;;;;;13.10;7.47;;;-2.80;69.00;;;;;;6255113;28;20188;-61
2024/01/10 07:57:48;;;;;;;12.47;7.27;;;-2.70;68.50;;;;;;6291892;28;20234;-61
2024/01/10 08:00:49;;;;;;;15.47;7.10;;;-2.70;68.00;;;;;;6279740;28;20191;-61
2024/01/10 08:03:50;;;;;;;12.13;7.47;;;-2.70;67.50;;;;;;6283812;28;20222;-61
2024/01/10 08:06:51;;;;;;;13.53;7.57;;;-2.70;67.40;;;;;;6269626;28;20194;-61
2024/01/10 08:09:52;;;;;;;16.00;7.40;;;-2.60;68.20;;;;;;6301643;28;20271;-61
2024/01/10 08:12:52;;;;;;;14.77;7.60;;;-2.50;67.30;;;;;;6262995;28;20270;-61
2024/01/10 08:15:54;;;;;;;15.97;8.50;;;-2.50;67.10;;;;;;6278965;28;20208;-61
2024/01/10 08:18:54;;;;;;;17.50;8.23;;;-2.50;66.40;;;;;;6270081;28;20186;-61
2024/01/10 08:21:56;;;;;;;11.80;7.77;;;-2.50;66.60;;;;;;6293860;28;20186;-61
2024/01/10 08:24:56;;;;;;;12.40;7.57;;;-2.50;66.70;;;;;;6281937;28;20218;-61
2024/01/10 08:27:57;;;;;;;12.93;7.83;;;-2.40;66.70;;;;;;6271940;28;20229;-61
2024/01/10 08:30:58;;;;;;;14.00;8.00;;;-2.40;66.40;;;;;;6280155;28;20209;-61
2024/01/10 08:33:59;;;;;;;11.93;8.17;;;-2.30;66.10;;;;;;6270714;28;20360;-61
2024/01/10 08:36:59;;;;;;;12.87;8.07;;;-2.30;66.10;;;;;;6277056;28;20278;-61
2024/01/10 08:40:06;;;;;;;13.73;8.43;;;-2.30;65.30;;;;;;6285032;28;20213;-61
2024/01/10 08:43:06;;;;;;;10.57;7.00;;;-2.20;65.40;;;;;;6270021;28;20222;-61
2024/01/10 08:46:10;;;;;;;12.20;7.60;;;-2.20;65.00;;;;;;6270911;28;20245;-61
2024/01/10 08:49:11;;;;;;;12.43;7.50;;;-2.10;63.20;;;;;;6281056;28;20228;-61
2024/01/10 08:52:13;;;;;;;13.50;8.33;;;-2.10;64.70;;;;;;6268195;28;20190;-61
2024/01/10 08:55:14;;;;;;;14.00;7.80;;;-2.10;63.80;;;;;;6274427;28;20182;-61
2024/01/10 08:58:14;;;;;;;12.93;7.37;;;-2.00;64.10;;;;;;6268761;28;20231;-61
2024/01/10 09:01:15;;;;;;;13.47;7.40;;;-1.90;62.80;;;;;;6258097;28;20185;-61
2024/01/10 09:04:16;;;;;;;18.17;8.73;;;-1.90;62.80;;;;;;6284375;28;20232;-61
2024/01/10 09:07:18;;;;;;;15.00;9.10;;;-1.90;63.60;;;;;;6263803;28;20201;-61
2024/01/10 09:10:19;;;;;;;15.53;7.93;;;-1.80;63.60;;;;;;6267375;28;20233;-61
2024/01/10 09:13:19;;;;;;;12.77;8.07;;;-1.80;64.00;;;;;;6269045;28;20182;-61
2024/01/10 09:16:20;;;;;;;11.57;7.60;;;-1.80;62.50;;;;;;6260094;28;20194;-61
2024/01/10 09:19:21;;;;;;;14.97;7.67;;;-1.80;63.80;;;;;;6287870;28;20279;-61
2024/01/10 09:22:21;;;;;;;16.47;8.43;;;-1.70;63.50;;;;;;6264203;28;20968;-61
2024/01/10 09:25:22;;;;;;;14.10;8.70;;;-1.60;64.00;;;;;;6264617;28;20248;-61
2024/01/10 09:28:23;;;;;;;14.57;8.10;;;-1.50;64.00;;;;;;6278843;28;20195;-61
2024/01/10 09:31:23;;;;;;;15.30;9.23;;;-1.50;63.00;;;;;;6268490;28;20227;-61
2024/01/10 09:34:24;;;;;;;11.33;8.30;;;-1.40;62.50;;;;;;6269035;28;20199;-61
2024/01/10 09:37:25;;;;;;;13.83;8.47;;;-1.30;62.90;;;;;;6258233;28;20295;-61
2024/01/10 09:40:28;;;;;;;11.13;8.17;;;-1.30;62.60;;;;;;6265590;28;20236;-61
2024/01/10 09:43:35;;;;;;;13.87;8.90;;;-1.30;62.90;;;;;;6256185;28;20206;-61
2024/01/10 09:46:40;;;;;;;16.87;9.10;;;-1.30;63.50;;;;;;6277962;28;20232;-61
2024/01/10 09:49:44;;;;;;;13.97;9.40;;;-1.20;63.50;;;;;;6298154;28;20248;-61
2024/01/10 09:52:52;;;;;;;14.43;9.40;;;-1.10;61.90;;;;;;6254020;28;20231;-61
2024/01/10 09:55:56;;;;;;;15.00;8.37;;;-1.20;61.00;;;;;;6298267;28;20244;-61
2024/01/10 09:59:00;;;;;;;16.47;8.63;;;-1.10;62.20;;;;;;6306448;28;20258;-61
2024/01/10 10:02:04;;;;;;;12.10;7.90;;;-1.00;60.30;;;;;;6298705;28;21304;-61
2024/01/10 10:05:15;;;;;;;14.20;8.40;;;-1.00;60.80;;;;;;6275367;28;20194;-61
2024/01/10 10:08:22;;;;;;;17.30;9.00;;;-0.90;61.30;;;;;;6278787;28;20201;-61
2024/01/10 10:11:22;;;;;;;11.63;7.60;;;-0.80;60.60;;;;;;6264167;28;20244;-61
2024/01/10 10:14:26;;;;;;;14.67;8.23;;;-0.80;60.50;;;;;;6262037;28;20202;-61
2024/01/10 10:17:28;;;;;;;16.67;9.00;;;-0.70;60.40;;;;;;6273329;28;20189;-61
2024/01/10 10:20:35;;;;;;;15.57;8.50;;;-0.70;59.70;;;;;;6286756;28;20366;-61
2024/01/10 10:23:37;;;;;;;13.87;8.40;;;-0.60;60.30;;;;;;6301488;28;20193;-61
2024/01/10 10:26:38;;;;;;;13.67;8.40;;;-0.60;60.00;;;;;;6279254;28;20199;-61
2024/01/10 10:29:39;;;;;;;11.57;7.63;;;-0.60;58.70;;;;;;6258556;28;20212;-61
2024/01/10 10:32:40;;;;;;;12.17;7.77;;;-0.50;59.80;;;;;;6279646;28;20279;-61
2024/01/10 10:35:40;;;;;;;15.40;8.47;;;-0.40;59.00;;;;;;6268852;28;20240;-61
2024/01/10 10:38:41;;;;;;;9.37;6.53;;;-0.30;59.50;;;;;;6271921;28;20200;-61
2024/01/10 10:41:43;;;;;;;13.63;7.60;;;-0.20;59.10;;;;;;6278401;28;20239;-62
2024/01/10 10:44:45;;;;;;;12.00;7.40;;;-0.20;56.60;;;;;;6305481;28;20209;-61
2024/01/10 10:47:49;;;;;;;12.43;7.37;;;-0.10;56.20;;;;;;6270345;28;20198;-61
2024/01/10 10:51:17;;;;;;;12.60;7.90;;;-0.10;56.20;;;;;;6270989;28;20275;-61
2024/01/10 10:54:19;;;;;;;11.43;8.17;;;-0.10;57.50;;;;;;6280486;28;20204;-61
2024/01/10 10:57:20;;;;;;;11.90;6.90;;;0.00;57.80;;;;;;6263062;28;20323;-61
2024/01/10 11:00:26;;;;;;;10.63;6.93;;;0.00;56.40;;;;;;6285724;28;20275;-61
2024/01/10 11:03:31;;;;;;;11.37;6.97;;;0.00;55.80;;;;;;6280180;28;20196;-62
2024/01/10 11:06:34;;;;;;;12.27;7.13;;;0.20;55.80;;;;;;6267111;28;20229;-61
2024/01/10 11:09:35;;;;;;;11.07;7.67;;;0.30;56.50;;;;;;6284136;28;20220;-61
2024/01/10 11:12:42;;;;;;;11.00;6.83;;;0.30;55.10;;;;;;6264246;28;20196;-62
2024/01/10 11:16:15;;;;;;;12.00;7.57;;;0.40;56.50;;;;;;6307243;28;20219;-61
2024/01/10 11:19:53;;;;;;;13.97;7.83;;;0.50;56.50;;;;;;6300779;28;20184;-61
2024/01/10 11:23:15;;;;;;;13.07;7.17;;;0.60;56.60;;;;;;6305400;28;20249;-61
2024/01/10 11:26:16;;;;;;;10.83;6.63;;;0.60;54.40;;;;;;6303803;28;20209;-61
2024/01/10 11:29:17;;;;;;;12.57;7.53;;;0.70;55.00;;;;;;6308025;28;20184;-62
2024/01/10 11:32:22;;;;;;;9.43;6.87;;;0.70;55.00;;;;;;6293239;28;20233;-61
2024/01/10 11:35:24;;;;;;;10.97;7.60;;;0.80;56.00;;;;;;6308024;28;20272;-61
2024/01/10 11:38:27;;;;;;;11.43;8.67;;;0.80;56.20;;;;;;6292950;28;20188;-61
2024/01/10 11:41:32;;;;;;;12.10;8.17;;;0.90;55.00;;;;;;6283302;28;20189;-61
2024/01/10 11:44:33;;;;;;;14.23;8.60;;;0.90;54.80;;;;;;6280953;28;20222;-61
2024/01/10 11:47:34;;;;;;;16.90;9.07;;;1.00;55.20;;;;;;6266917;28;20659;-61
2024/01/10 11:50:35;;;;;;;15.47;8.83;;;1.00;53.80;;;;;;6302282;28;20207;-61
2024/01/10 11:53:46;;;;;;;15.33;9.23;;;1.10;53.60;;;;;;6288829;28;20189;-61
2024/01/10 11:56:46;;;;;;;16.10;9.57;;;1.20;53.50;;;;;;6308658;28;20219;-61
2024/01/10 11:59:51;;;;;;;16.40;9.60;;;1.20;53.70;;;;;;6269758;28;20232;-61
2024/01/10 12:02:52;;;;;;;12.70;8.47;;;;;;;;;;6303670;28;20202;-62
2024/01/10 12:05:54;;;;;;;12.77;8.67;;;;;;;;;;6285883;28;20197;-61
2024/01/10 12:08:56;;;;;;;14.87;9.53;;;;;;;;;;6293387;28;20237;-62
2024/01/10 12:11:57;;;;;;;14.03;9.10;;;;;;;;;;6293593;28;20279;-62
2024/01/10 12:14:58;;;;;;;13.77;8.90;;;;;;;;;;6285587;28;20188;-61
2024/01/10 12:17:59;;;;;;;16.10;8.80;;;;;;;;;;6282845;28;20288;-61
2024/01/10 12:21:00;;;;;;;16.23;9.70;;;;;;;;;;6288619;28;20237;-61
2024/01/10 12:24:05;;;;;;;12.30;8.73;;;;;;;;;;6307734;28;20271;-62
2024/01/10 12:27:06;;;;;;;12.30;8.20;;;;;;;;;;6301820;28;20189;-61
2024/01/10 12:30:09;;;;;;;14.80;9.60;;;;;;;;;;6283691;28;20220;-61
2024/01/10 12:33:10;;;;;;;14.93;8.87;;;1.30;53.80;;;;;;6295249;28;20188;-63
2024/01/10 12:36:11;;;;;;;9.07;7.20;;;2.50;52.50;;;;;;6271248;28;20257;-63
2024/01/10 12:39:12;;;;;;;10.60;7.87;;;2.50;52.20;;;;;;6300798;28;20196;-63
2024/01/10 12:42:13;;;;;;;11.30;7.43;;;2.70;52.20;;;;;;6263998;28;20213;-63
2024/01/10 12:45:23;;;;;;;8.20;5.27;;;2.80;52.20;;;;;;6258164;28;20191;-63
2024/01/10 12:48:24;;;;;;;9.07;5.80;;;2.90;52.40;;;;;;6298950;28;20185;-63
2024/01/10 12:51:25;;;;;;;8.37;5.33;;;3.00;52.60;;;;;;6278003;28;20226;-63
2024/01/10 12:54:26;;;;;;;9.00;5.27;;;3.10;51.10;;;;;;6262402;28;20197;-63
2024/01/10 12:57:27;;;;;;;11.00;6.13;;;3.10;52.00;;;;;;6276499;28;20240;-61
2024/01/10 13:00:29;;;;;;;6.77;5.07;;;;;;;;;;6285118;28;20192;-63
2024/01/10 13:03:32;;;;;;;4.07;3.30;;;;;;;;;;6305799;28;20243;-69
2024/01/10 13:06:32;;;;;;;5.67;4.10;;;3.10;51.40;;;;;;6301482;28;20193;-63
2024/01/10 13:09:33;;;;;;;5.70;4.40;;;3.30;51.00;;;;;;6264067;28;20226;-63
2024/01/10 13:12:34;;;;;;;5.17;4.37;;;3.30;50.70;;;;;;6268895;28;20225;-63
2024/01/10 13:15:34;;;;;;;6.47;4.23;;;3.40;50.70;;;;;;6284634;28;20252;-63
2024/01/10 13:18:35;;;;;;;5.97;3.97;;;3.40;50.10;;;;;;6264440;28;20200;-63
2024/01/10 13:21:37;;;;;;;5.00;4.13;;;3.50;51.20;;;;;;6260590;28;20223;-63
2024/01/10 13:24:38;;;;;;;6.93;4.77;;;;;;;;;;6281022;28;20201;-63
2024/01/10 13:27:40;;;;;;;7.60;5.37;;;;;;;;;;6275166;28;20204;-63
2024/01/10 13:30:42;;;;;;;10.27;5.57;;;;;;;;;;6275413;28;20250;-63
2024/01/10 13:33:43;;;;;;;7.10;4.83;;;;;;;;;;6287366;28;20664;-63
2024/01/10 13:36:45;;;;;;;6.40;4.97;;;;;;;;;;6274660;28;20243;-63
2024/01/10 13:39:46;;;;;;;6.33;4.20;;;;;;;;;;6274920;28;20188;-63
2024/01/10 13:42:47;;;;;;;6.33;4.50;;;;;;;;;;6304280;28;20255;-62
2024/01/10 13:45:48;;;;;;;4.77;3.87;;;;;;;;;;6292030;28;20192;-62
2024/01/10 13:48:49;;;;;;;5.87;4.83;;;;;;;;;;6280245;28;20278;-62
2024/01/10 13:51:50;;;;;;;6.30;4.73;;;;;;;;;;6276875;28;20212;-62
2024/01/10 13:54:51;;;;;;;9.23;6.43;;;;;;;;;;6284368;28;20214;-63
2024/01/10 13:57:53;;;;;;;8.97;5.87;;;;;;;;;;6301642;28;20323;-62
2024/01/10 14:00:54;;;;;;;8.33;5.90;;;;;;;;;;6273646;28;20200;-62
2024/01/10 14:03:55;;;;;;;9.53;6.10;;;;;;;;;;6283972;28;20657;-62
2024/01/10 14:06:56;;;;;;;11.50;7.03;;;;;;;;;;6280452;28;20200;-62
2024/01/10 14:09:57;;;;;;;10.47;6.43;;;;;;;;;;6292934;28;20223;-62
2024/01/10 14:12:58;;;;;;;14.73;7.80;;;;;;;;;;6285162;28;20657;-63
2024/01/10 14:15:59;;;;;;;10.83;7.63;;;;;;;;;;6284298;28;20195;-62
2024/01/10 14:19:00;;;;;;;11.00;7.07;;;;;;;;;;6285970;28;20198;-62
2024/01/10 14:22:01;;;;;;;9.90;6.87;;;;;;;;;;6285816;28;20198;-63
2024/01/10 14:25:02;;;;;;;12.53;8.47;;;;;;;;;;6302928;28;20196;-62
2024/01/10 14:28:04;;;;;;;11.50;7.63;;;;;;;;;;6280081;28;20212;-62
2024/01/10 14:31:05;;;;;;;15.90;7.93;;;;;;;;;;6296510;28;20223;-62
2024/01/10 14:34:06;;;;;;;11.07;7.53;;;;;;;;;;6270662;28;20195;-65
2024/01/10 14:37:07;;;;;;;12.77;7.50;;;;;;;;;;6296266;28;20188;-63
2024/01/10 14:40:09;;;;;;;11.37;8.80;;;;;;;;;;6297483;28;20241;-66
2024/01/10 14:43:09;;;;;;;12.90;8.17;;;3.50;51.40;;;;;;6282217;28;20189;-66
2024/01/10 14:46:11;;;;;;;12.23;8.83;;;2.70;49.70;;;;;;6281471;28;20204;-67
2024/01/10 14:49:11;;;;;;;11.90;8.30;;;2.50;51.10;;;;;;6271261;28;20409;-66
2024/01/10 14:52:12;;;;;;;13.30;8.50;;;2.50;51.50;;;;;;6259348;28;20200;-69
2024/01/10 14:55:13;;;;;;;14.90;9.17;;;2.50;51.90;;;;;;6266733;28;20197;-66
2024/01/10 14:58:14;;;;;;;13.07;8.50;;;2.50;51.80;;;;;;6270547;28;20277;-63
2024/01/10 15:01:15;;;;;;;13.17;9.73;;;2.40;52.40;;;;;;6272990;28;20193;-62
2024/01/10 15:04:16;;;;;;;16.83;9.57;;;;;;;;;;6271211;28;20191;-62
2024/01/10 15:07:17;;;;;;;12.90;8.90;;;;;;;;;;6282600;28;20228;-61
2024/01/10 15:10:18;;;;;;;13.07;9.17;;;2.30;52.80;;;;;;6280426;28;20220;-61
2024/01/10 15:13:19;;;;;;;15.47;9.47;;;1.90;53.70;;;;;;6283758;28;20184;-61
2024/01/10 15:16:20;;;;;;;14.57;10.37;;;1.80;54.60;;;;;;6263861;28;20189;-63
2024/01/10 15:19:21;;;;;;;16.50;10.03;;;1.60;54.60;;;;;;6252347;28;20186;-62
2024/01/10 15:22:22;;;;;;;14.43;9.60;;;1.60;54.80;;;;;;6261271;28;20241;-62
2024/01/10 15:25:26;;;;;;;13.73;9.53;;;1.50;55.80;;;;;;6268160;28;20200;-62
2024/01/10 15:28:28;;;;;;;13.57;9.13;;;1.40;55.00;;;;;;6288875;28;20193;-62
2024/01/10 15:31:29;;;;;;;15.10;9.40;;;1.30;56.40;;;;;;6272294;28;20208;-62
2024/01/10 15:34:30;;;;;;;16.40;10.33;;;1.20;56.50;;;;;;6259595;28;20264;-62
2024/01/10 15:37:30;;;;;;;15.63;9.37;;;1.10;57.80;;;;;;6300284;28;20240;-62
2024/01/10 15:40:31;;;;;;;14.77;9.27;;;1.00;57.80;;;;;;6286862;28;20188;-62
2024/01/10 15:43:32;;;;;;;14.60;8.93;;;1.00;58.00;;;;;;6269559;28;20200;-62
2024/01/10 15:46:32;;;;;;;13.73;8.53;;;0.80;58.40;;;;;;6275940;28;20193;-62
2024/01/10 15:49:33;;;;;;;12.87;8.57;;;0.80;58.60;;;;;;6263396;28;20228;-62
2024/01/10 15:52:35;;;;;;;15.60;9.50;;;0.60;58.90;;;;;;6257363;28;20184;-62
2024/01/10 15:55:36;;;;;;;13.50;9.10;;;0.60;59.40;;;;;;6301483;28;20185;-62
2024/01/10 15:58:38;;;;;;;13.97;9.50;;;;;;;;;;6266020;28;20231;-62
2024/01/10 16:01:38;;;;;;;14.63;9.17;;;0.50;60.40;;;;;;6285221;28;20188;-62
2024/01/10 16:04:39;;;;;;;13.77;9.20;;;0.40;60.50;;;;;;6271604;28;20180;-62
2024/01/10 16:07:40;;;;;;;14.20;8.67;;;0.40;61.50;;;;;;6263906;28;20188;-62